Time;durP1;ratioP1;P1;durP2;ratioP2;P2;SDS_P1;SDS_P2;PMS_P1;PMS_P2;Temp;Humidity;BMP_temperature;BMP_pressure;BME280_temperature;BME280_humidity;BME280_pressure;Samples;Min_cycle;Max_cycle;Signal;HPM_P1;HPM_P2
2021/11/05 00:02:29;;;;;;;0.23;0.23;;;;;;;;;;4934647;28;20226;-72
2021/11/05 00:04:55;;;;;;;0.07;0.07;;;;;;;;;;4934836;29;20222;-71
2021/11/05 00:07:24;;;;;;;0.30;0.30;;;;;;;;;;4944347;28;20224;-72
2021/11/05 00:09:49;;;;;;;0.47;0.47;;;;;;;;;;4953858;28;20234;-72
2021/11/05 00:12:18;;;;;;;0.10;0.10;;;;;;;;;;4952201;28;20226;-71
2021/11/05 00:14:46;;;;;;;0.10;0.10;;;;;;;;;;4966009;28;20250;-72
2021/11/05 00:17:12;;;;;;;0.33;0.33;;;;;;;;;;4951682;28;20227;-72
2021/11/05 00:19:38;;;;;;;0.47;0.47;;;;;;;;;;4922213;28;20721;-73
2021/11/05 00:22:05;;;;;;;0.70;0.70;;;;;;;;;;4953988;28;20241;-73
2021/11/05 00:24:30;;;;;;;0.27;0.27;;;;;;;;;;4922246;28;20222;-72
2021/11/05 00:26:56;;;;;;;0.20;0.20;;;;;;;;;;4954181;28;20256;-72
2021/11/05 00:29:23;;;;;;;0.30;0.30;;;;;;;;;;4918398;28;20250;-71
2021/11/05 00:31:56;;;;;;;0.37;0.37;;;;;;;;;;4935441;29;20700;-73
2021/11/05 00:34:21;;;;;;;0.40;0.40;;;;;;;;;;4966284;28;20711;-73
2021/11/05 00:36:47;;;;;;;0.27;0.27;;;;;;;;;;4954102;28;20220;-72
2021/11/05 00:39:13;;;;;;;0.10;0.10;;;;;;;;;;4972918;28;20219;-72
2021/11/05 00:41:39;;;;;;;0.07;0.07;;;;;;;;;;4949446;29;20655;-72
2021/11/05 00:44:05;;;;;;;1.50;0.47;;;;;;;;;;4960257;28;20221;-72
2021/11/05 00:46:30;;;;;;;0.13;0.13;;;;;;;;;;4965243;28;20584;-72
2021/11/05 00:48:57;;;;;;;0.30;0.30;;;;;;;;;;4967060;28;20716;-73
2021/11/05 00:51:27;;;;;;;0.37;0.37;;;;;;;;;;4922588;29;20233;-72
2021/11/05 00:53:52;;;;;;;0.50;0.50;;;;;;;;;;4932351;28;20229;-72
2021/11/05 00:56:18;;;;;;;0.10;0.10;;;;;;;;;;4973675;28;20846;-72
2021/11/05 00:58:46;;;;;;;0.20;0.20;;;;;;;;;;4965762;28;20306;-73
2021/11/05 01:01:13;;;;;;;0.40;0.40;;;;;;;;;;4953782;29;20326;-72
2021/11/05 01:03:41;;;;;;;0.10;0.10;;;;;;;;;;4962210;28;20222;-72
2021/11/05 01:06:07;;;;;;;0.10;0.10;;;;;;;;;;4956510;28;20221;-72
2021/11/05 01:08:32;;;;;;;0.27;0.27;;;;;;;;;;4969376;28;20284;-72
2021/11/05 01:10:58;;;;;;;0.47;0.47;;;;;;;;;;4940439;29;20234;-72
2021/11/05 01:13:26;;;;;;;1.73;1.60;;;;;;;;;;4940694;28;20668;-73
2021/11/05 01:15:52;;;;;;;1.37;1.37;;;;;;;;;;4956898;28;20229;-72
2021/11/05 01:18:20;;;;;;;0.10;0.10;;;;;;;;;;4955129;28;20226;-72
2021/11/05 01:20:47;;;;;;;1.93;0.87;;;;;;;;;;4938370;29;20222;-72
2021/11/05 01:23:17;;;;;;;0.50;0.50;;;;;;;;;;4938484;28;20234;-72
2021/11/05 01:25:45;;;;;;;0.57;0.57;;;;;;;;;;4956848;28;20614;-72
2021/11/05 01:28:13;;;;;;;0.80;0.80;;;;;;;;;;4973889;28;20237;-73
2021/11/05 01:30:39;;;;;;;0.40;0.40;;;;;;;;;;4956808;28;20222;-73
2021/11/05 01:33:07;;;;;;;1.80;1.70;;;;;;;;;;4973659;28;20584;-71
2021/11/05 01:35:35;;;;;;;0.80;0.80;;;;;;;;;;4973921;28;20217;-71
2021/11/05 01:38:03;;;;;;;0.10;0.10;;;;;;;;;;4937639;29;20314;-72
2021/11/05 01:40:28;;;;;;;0.87;0.87;;;;;;;;;;4940845;28;20606;-72
2021/11/05 01:42:55;;;;;;;0.20;0.20;;;;;;;;;;4956949;28;20301;-72
2021/11/05 01:45:21;;;;;;;0.20;0.20;;;;;;;;;;4966122;28;20309;-72
2021/11/05 01:47:47;;;;;;;1.07;1.03;;;;;;;;;;4956943;28;20317;-72
2021/11/05 01:50:13;;;;;;;2.30;2.13;;;;;;;;;;4955572;28;20257;-72
2021/11/05 01:52:39;;;;;;;0.13;0.13;;;;;;;;;;4956439;28;20222;-72
2021/11/05 01:55:05;;;;;;;0.50;0.50;;;;;;;;;;4955976;28;20225;-72
2021/11/05 01:57:31;;;;;;;0.13;0.13;;;;;;;;;;4974028;28;20223;-72
2021/11/05 01:59:59;;;;;;;0.63;0.63;;;;;;;;;;4946874;29;20225;-72
2021/11/05 02:02:24;;;;;;;0.17;0.17;;;;;;;;;;4952872;29;20219;-72
2021/11/05 02:04:53;;;;;;;0.77;0.77;;;;;;;;;;4944879;28;20248;-71
2021/11/05 02:07:18;;;;;;;1.87;1.70;;;;;;;;;;4973191;28;20320;-73
2021/11/05 02:09:45;;;;;;;0.40;0.40;;;;;;;;;;4964678;28;20233;-73
2021/11/05 02:12:11;;;;;;;0.73;0.73;;;;;;;;;;4941832;29;20229;-73
2021/11/05 02:14:36;;;;;;;0.30;0.30;;;;;;;;;;4941335;28;20226;-73
2021/11/05 02:17:07;;;;;;;0.27;0.27;;;;;;;;;;4925141;28;20214;-73
2021/11/05 02:19:33;;;;;;;0.40;0.40;;;;;;;;;;4937201;28;20314;-73
2021/11/05 02:22:01;;;;;;;0.03;0.03;;;;;;;;;;4921023;29;20230;-71
2021/11/05 02:24:29;;;;;;;0.63;0.63;;;;;;;;;;4923343;28;20226;-71
2021/11/05 02:26:55;;;;;;;1.40;1.30;;;;;;;;;;4973144;28;20230;-73
2021/11/05 02:29:21;;;;;;;0.10;0.10;;;;;;;;;;4971653;28;20253;-72
2021/11/05 02:31:47;;;;;;;0.30;0.30;;;;;;;;;;4936807;29;20764;-72
2021/11/05 02:34:12;;;;;;;0.43;0.43;;;;;;;;;;4936164;29;20238;-71
2021/11/05 02:36:38;;;;;;;0.43;0.43;;;;;;;;;;4968706;28;20278;-71
2021/11/05 02:39:07;;;;;;;0.47;0.47;;;;;;;;;;4966175;28;20716;-71
2021/11/05 02:41:37;;;;;;;0.10;0.10;;;;;;;;;;4921940;28;20244;-72
2021/11/05 02:44:05;;;;;;;0.07;0.07;;;;;;;;;;4955824;28;20218;-71
2021/11/05 02:46:33;;;;;;;1.23;0.80;;;;;;;;;;4951868;28;20610;-71
2021/11/05 02:48:59;;;;;;;0.10;0.10;;;;;;;;;;4936355;29;20241;-71
2021/11/05 02:51:25;;;;;;;1.00;1.00;;;;;;;;;;4966453;28;20214;-71
2021/11/05 02:53:50;;;;;;;0.60;0.60;;;;;;;;;;4955547;28;20911;-71
2021/11/05 02:56:18;;;;;;;0.20;0.20;;;;;;;;;;4954586;28;20233;-70
2021/11/05 02:58:48;;;;;;;0.20;0.20;;;;;;;;;;4955310;28;20232;-72
2021/11/05 03:01:17;;;;;;;0.10;0.10;;;;;;;;;;4935860;28;20219;-71
2021/11/05 03:03:43;;;;;;;0.73;0.73;;;;;;;;;;4953463;28;20281;-71
2021/11/05 03:06:11;;;;;;;0.20;0.20;;;;;;;;;;4937707;29;20218;-71
2021/11/05 03:08:39;;;;;;;0.40;0.40;;;;;;;;;;4962977;28;20227;-71
2021/11/05 03:11:11;;;;;;;0.40;0.40;;;;;;;;;;4923309;28;20237;-72
2021/11/05 03:13:40;;;;;;;0.17;0.17;;;;;;;;;;4940934;28;20236;-72
2021/11/05 03:16:05;;;;;;;0.10;0.10;;;;;;;;;;4971477;28;20233;-71
2021/11/05 03:18:34;;;;;;;0.43;0.27;;;;;;;;;;4971252;28;20598;-71
2021/11/05 03:21:00;;;;;;;1.03;0.83;;;;;;;;;;4965259;28;20634;-71
2021/11/05 03:23:29;;;;;;;0.93;0.93;;;;;;;;;;4935132;29;20306;-71
2021/11/05 03:25:54;;;;;;;0.33;0.33;;;;;;;;;;4925419;28;20742;-73
2021/11/05 03:28:24;;;;;;;0.10;0.10;;;;;;;;;;4954408;28;20230;-71
2021/11/05 03:30:52;;;;;;;0.10;0.10;;;;;;;;;;4939074;28;20637;-71
2021/11/05 03:33:20;;;;;;;0.60;0.60;;;;;;;;;;4954586;28;20230;-72
2021/11/05 03:35:48;;;;;;;0.87;0.87;;;;;;;;;;4938748;28;20758;-72
2021/11/05 03:38:13;;;;;;;1.43;1.30;;;;;;;;;;4946267;28;20222;-71
2021/11/05 03:40:41;;;;;;;0.57;0.57;;;;;;;;;;4922853;28;20238;-71
2021/11/05 03:43:07;;;;;;;0.97;0.97;;;;;;;;;;4954265;28;20338;-71
2021/11/05 03:45:33;;;;;;;0.37;0.37;;;;;;;;;;4938125;28;20222;-74
2021/11/05 03:48:03;;;;;;;0.50;0.50;;;;;;;;;;4952651;29;20724;-73
2021/11/05 03:50:28;;;;;;;0.20;0.20;;;;;;;;;;4935678;29;20281;-72
2021/11/05 03:52:54;;;;;;;0.93;0.50;;;;;;;;;;4953996;28;20735;-72
2021/11/05 03:55:19;;;;;;;0.17;0.17;;;;;;;;;;4936932;28;20233;-72
2021/11/05 03:57:45;;;;;;;0.10;0.10;;;;;;;;;;4938732;28;20308;-72
2021/11/05 04:00:13;;;;;;;0.70;0.70;;;;;;;;;;4954130;28;20289;-72
2021/11/05 04:02:39;;;;;;;0.20;0.20;;;;;;;;;;4938656;28;20226;-72
2021/11/05 04:05:05;;;;;;;0.60;0.60;;;;;;;;;;4922287;28;20301;-72
2021/11/05 04:07:30;;;;;;;0.30;0.30;;;;;;;;;;4956201;28;20222;-74
2021/11/05 04:09:56;;;;;;;0.20;0.20;;;;;;;;;;4964295;28;20716;-71
2021/11/05 04:12:21;;;;;;;0.40;0.40;;;;;;;;;;4950729;28;20347;-72
2021/11/05 04:14:52;;;;;;;0.23;0.23;;;;;;;;;;4935988;28;20218;-71
2021/11/05 04:17:18;;;;;;;0.67;0.67;;;;;;;;;;4965846;28;20215;-73
2021/11/05 04:19:43;;;;;;;0.10;0.10;;;;;;;;;;4933857;29;20789;-72
2021/11/05 04:22:09;;;;;;;0.20;0.20;;;;;;;;;;4920209;29;20334;-73
2021/11/05 04:24:34;;;;;;;1.03;1.03;;;;;;;;;;4948276;28;20249;-73
2021/11/05 04:27:02;;;;;;;0.10;0.10;;;;;;;;;;4962130;28;20219;-71
2021/11/05 04:29:31;;;;;;;0.43;0.43;;;;;;;;;;4920680;28;20585;-73
2021/11/05 04:31:57;;;;;;;0.40;0.40;;;;;;;;;;4927243;29;20249;-73
2021/11/05 04:34:26;;;;;;;0.60;0.60;;;;;;;;;;4918418;29;20222;-71
2021/11/05 04:36:52;;;;;;;0.00;0.00;;;;;;;;;;4939007;28;20210;-72
2021/11/05 04:39:24;;;;;;;0.40;0.40;;;;;;;;;;4908937;28;20281;-71
2021/11/05 04:41:49;;;;;;;0.77;0.77;;;;;;;;;;4957111;28;20755;-72
2021/11/05 04:44:15;;;;;;;0.77;0.50;;;;;;;;;;4945468;28;20226;-72
2021/11/05 04:46:41;;;;;;;0.43;0.43;;;;;;;;;;4960454;28;20301;-72
2021/11/05 04:49:06;;;;;;;0.20;0.20;;;;;;;;;;4957141;28;20575;-71
2021/11/05 04:51:36;;;;;;;1.00;1.00;;;;;;;;;;4936599;28;20218;-72
2021/11/05 04:54:02;;;;;;;0.60;0.60;;;;;;;;;;4950686;29;20326;-72
2021/11/05 04:56:30;;;;;;;2.77;0.63;;;;;;;;;;4950448;29;20616;-71
2021/11/05 04:58:58;;;;;;;0.50;0.50;;;;;;;;;;4947514;28;20246;-72
2021/11/05 05:01:24;;;;;;;0.87;0.87;;;;;;;;;;4988380;28;20241;-72
2021/11/05 05:03:50;;;;;;;0.53;0.53;;;;;;;;;;4955377;28;20218;-72
2021/11/05 05:06:15;;;;;;;0.33;0.33;;;;;;;;;;4961840;28;20760;-72
2021/11/05 05:08:41;;;;;;;0.30;0.30;;;;;;;;;;4962046;28;20295;-72
2021/11/05 05:11:06;;;;;;;0.80;0.80;;;;;;;;;;4946507;29;20301;-72
2021/11/05 05:13:32;;;;;;;0.30;0.30;;;;;;;;;;4973691;28;20228;-71
2021/11/05 05:15:58;;;;;;;0.57;0.57;;;;;;;;;;4946423;28;20233;-71
2021/11/05 05:18:26;;;;;;;0.10;0.10;;;;;;;;;;4950961;28;20609;-72
2021/11/05 05:20:54;;;;;;;1.07;1.07;;;;;;;;;;4920563;29;20227;-71
2021/11/05 05:23:19;;;;;;;0.73;0.60;;;;;;;;;;4961260;28;20246;-72
2021/11/05 05:25:44;;;;;;;0.83;0.83;;;;;;;;;;4940400;28;20228;-71
2021/11/05 05:28:10;;;;;;;0.50;0.50;;;;;;;;;;4940674;28;20218;-71
2021/11/05 05:30:36;;;;;;;1.03;1.03;;;;;;;;;;4972719;28;20738;-71
2021/11/05 05:33:03;;;;;;;1.90;1.17;;;;;;;;;;4969717;28;20608;-72
2021/11/05 05:35:29;;;;;;;1.03;0.73;;;;;;;;;;4936916;29;20229;-72
2021/11/05 05:37:56;;;;;;;0.53;0.53;;;;;;;;;;4968004;28;20222;-72
2021/11/05 05:40:28;;;;;;;0.33;0.33;;;;;;;;;;4952846;28;20250;-72
2021/11/05 05:42:54;;;;;;;0.70;0.70;;;;;;;;;;4958956;28;20222;-73
2021/11/05 05:45:22;;;;;;;0.57;0.57;;;;;;;;;;4940575;28;20304;-72
2021/11/05 05:47:47;;;;;;;0.10;0.10;;;;;;;;;;4954259;28;20225;-72
2021/11/05 05:50:14;;;;;;;0.10;0.10;;;;;;;;;;4920965;29;20238;-72
2021/11/05 05:52:40;;;;;;;0.20;0.20;;;;;;;;;;4962754;28;20606;-72
2021/11/05 05:55:06;;;;;;;1.03;1.03;;;;;;;;;;4946169;28;20225;-72
2021/11/05 05:57:32;;;;;;;0.13;0.13;;;;;;;;;;4945460;28;20655;-72
2021/11/05 05:59:57;;;;;;;0.50;0.50;;;;;;;;;;4952790;28;20285;-72
2021/11/05 06:02:23;;;;;;;0.57;0.57;;;;;;;;;;4952054;28;20685;-72
2021/11/05 06:04:48;;;;;;;0.40;0.40;;;;;;;;;;4974113;28;20279;-70
2021/11/05 06:07:16;;;;;;;0.10;0.10;;;;;;;;;;4939469;28;20222;-72
2021/11/05 06:09:42;;;;;;;0.40;0.40;;;;;;;;;;4950473;28;20222;-71
2021/11/05 06:12:07;;;;;;;0.53;0.53;;;;;;;;;;4942109;28;20716;-70
2021/11/05 06:14:33;;;;;;;0.10;0.10;;;;;;;;;;4965175;28;20222;-72
2021/11/05 06:16:58;;;;;;;3.60;0.97;;;;;;;;;;4956273;28;20603;-72
2021/11/05 06:19:26;;;;;;;0.77;0.77;;;;;;;;;;4944462;28;20318;-70
2021/11/05 06:21:51;;;;;;;0.67;0.67;;;;;;;;;;4937526;29;20305;-71
2021/11/05 06:24:17;;;;;;;0.23;0.23;;;;;;;;;;4920004;29;20253;-71
2021/11/05 06:26:43;;;;;;;1.80;1.40;;;;;;;;;;4920857;29;20756;-73
2021/11/05 06:29:08;;;;;;;0.50;0.50;;;;;;;;;;4928069;28;20226;-73
2021/11/05 06:32:02;;;;;;;0.70;0.70;;;;;;;;;;4963793;28;20221;-73
2021/11/05 06:34:31;;;;;;;0.23;0.23;;;;;;;;;;4934134;29;20233;-73
2021/11/05 06:37:00;;;;;;;0.10;0.10;;;;;;;;;;4946607;28;20214;-72
2021/11/05 06:39:31;;;;;;;0.40;0.40;;;;;;;;;;4969457;28;20230;-72
2021/11/05 06:41:58;;;;;;;0.20;0.20;;;;;;;;;;4948451;28;20273;-73
2021/11/05 06:44:24;;;;;;;0.27;0.17;;;;;;;;;;4954757;28;20237;-73
2021/11/05 06:46:50;;;;;;;0.50;0.50;;;;;;;;;;4955463;28;20297;-73
2021/11/05 06:49:18;;;;;;;0.10;0.10;;;;;;;;;;4938694;28;20264;-72
2021/11/05 06:51:43;;;;;;;0.83;0.77;;;;;;;;;;4955614;28;20214;-72
2021/11/05 06:54:09;;;;;;;0.93;0.93;;;;;;;;;;4955729;28;20234;-72
2021/11/05 06:56:35;;;;;;;0.10;0.10;;;;;;;;;;4972852;28;20277;-72
2021/11/05 06:59:01;;;;;;;0.10;0.10;;;;;;;;;;4971698;28;20708;-72
2021/11/05 07:01:27;;;;;;;0.27;0.27;;;;;;;;;;4955004;28;20233;-72
2021/11/05 07:03:54;;;;;;;0.10;0.10;;;;;;;;;;4971240;28;20619;-73
2021/11/05 07:06:19;;;;;;;0.10;0.10;;;;;;;;;;4935167;28;20285;-73
2021/11/05 07:08:47;;;;;;;0.27;0.27;;;;;;;;;;4972379;28;20226;-72
2021/11/05 07:11:13;;;;;;;0.17;0.17;;;;;;;;;;4958584;28;20493;-73
2021/11/05 07:13:40;;;;;;;0.40;0.40;;;;;;;;;;4988465;28;20218;-72
2021/11/05 07:16:10;;;;;;;0.93;0.93;;;;;;;;;;4969025;28;20232;-73
2021/11/05 07:18:39;;;;;;;4.33;0.83;;;;;;;;;;4978861;28;20250;-73
2021/11/05 07:21:12;;;;;;;0.40;0.40;;;;;;;;;;4955178;28;20214;-71
2021/11/05 07:23:37;;;;;;;0.10;0.10;;;;;;;;;;4969689;28;20252;-72
2021/11/05 07:26:03;;;;;;;0.40;0.40;;;;;;;;;;4966948;28;20230;-73
2021/11/05 07:28:31;;;;;;;0.43;0.43;;;;;;;;;;4967394;28;20230;-74
2021/11/05 07:30:57;;;;;;;0.30;0.30;;;;;;;;;;4959437;28;20229;-74
2021/11/05 07:33:23;;;;;;;1.33;1.23;;;;;;;;;;4971618;28;20218;-73
2021/11/05 07:35:50;;;;;;;0.10;0.10;;;;;;;;;;4955163;28;20218;-72
2021/11/05 07:38:19;;;;;;;0.10;0.10;;;;;;;;;;4951157;28;20222;-73
2021/11/05 07:40:45;;;;;;;0.47;0.47;;;;;;;;;;4959345;28;20230;-73
2021/11/05 07:43:11;;;;;;;0.30;0.30;;;;;;;;;;4935243;29;20229;-73
2021/11/05 07:45:37;;;;;;;0.10;0.10;;;;;;;;;;4944221;28;20221;-72
2021/11/05 07:48:02;;;;;;;0.00;0.00;;;;;;;;;;4954074;28;20731;-72
2021/11/05 07:50:33;;;;;;;0.30;0.30;;;;;;;;;;4938506;28;20696;-72
2021/11/05 07:53:01;;;;;;;0.70;0.53;;;;;;;;;;4967546;28;20228;-72
2021/11/05 07:55:28;;;;;;;1.60;1.23;;;;;;;;;;4941675;28;20618;-72
2021/11/05 07:57:54;;;;;;;0.83;0.50;;;;;;;;;;4971985;28;20229;-72
2021/11/05 08:00:22;;;;;;;0.47;0.47;;;;;;;;;;4950763;28;20218;-73
2021/11/05 08:02:48;;;;;;;0.17;0.17;;;;;;;;;;4936181;29;20223;-73
2021/11/05 08:05:13;;;;;;;0.73;0.73;;;;;;;;;;4938979;28;20703;-72
2021/11/05 08:07:39;;;;;;;0.40;0.40;;;;;;;;;;4927310;28;20301;-73
2021/11/05 08:10:06;;;;;;;0.40;0.40;;;;;;;;;;4962901;28;20232;-73
2021/11/05 08:12:31;;;;;;;0.20;0.20;;;;;;;;;;4935666;29;20310;-72
2021/11/05 08:15:00;;;;;;;0.20;0.20;;;;;;;;;;4922333;29;20214;-71
2021/11/05 08:17:26;;;;;;;0.10;0.10;;;;;;;;;;4935290;29;20704;-72
2021/11/05 08:19:51;;;;;;;0.47;0.47;;;;;;;;;;4923746;28;20230;-73
2021/11/05 08:22:19;;;;;;;17.87;1.03;;;;;;;;;;4943440;29;20294;-72
2021/11/05 08:24:47;;;;;;;0.10;0.10;;;;;;;;;;4948298;28;20679;-72
2021/11/05 08:27:13;;;;;;;0.10;0.10;;;;;;;;;;4981704;28;20245;-73
2021/11/05 08:29:39;;;;;;;0.20;0.20;;;;;;;;;;4950395;28;20293;-72
2021/11/05 08:32:05;;;;;;;1.40;1.37;;;;;;;;;;4954327;28;20650;-72
2021/11/05 08:34:33;;;;;;;0.97;0.60;;;;;;;;;;4965020;28;20306;-73
2021/11/05 08:36:58;;;;;;;0.30;0.30;;;;;;;;;;4977956;28;20222;-72
2021/11/05 08:39:26;;;;;;;0.13;0.13;;;;;;;;;;4977283;28;20285;-74
2021/11/05 08:41:52;;;;;;;0.70;0.70;;;;;;;;;;4961477;28;20226;-72
2021/11/05 08:44:17;;;;;;;13.50;7.40;;;;;;;;;;4942685;28;20257;-72
2021/11/05 08:46:44;;;;;;;12.03;7.20;;;;;;;;;;4938709;28;20226;-75
2021/11/05 08:49:15;;;;;;;13.57;10.13;;;;;;;;;;4939007;28;20233;-72
2021/11/05 08:51:43;;;;;;;16.40;10.07;;;;;;;;;;4945389;29;20219;-73
2021/11/05 08:54:08;;;;;;;15.30;11.03;;;;;;;;;;4950779;29;20641;-72
2021/11/05 08:56:34;;;;;;;14.50;10.53;;;;;;;;;;4926378;28;20356;-72
2021/11/05 08:59:03;;;;;;;20.30;12.87;;;;;;;;;;4938974;28;20230;-72
2021/11/05 09:01:28;;;;;;;12.87;11.47;;;;;;;;;;4967319;28;20219;-72
2021/11/05 09:03:54;;;;;;;16.47;11.10;;;;;;;;;;4955873;29;20219;-72
2021/11/05 09:06:20;;;;;;;18.23;11.43;;;;;;;;;;4958946;28;20261;-72
2021/11/05 09:08:48;;;;;;;16.70;11.53;;;;;;;;;;4966578;28;20253;-74
2021/11/05 09:11:15;;;;;;;17.80;12.93;;;;;;;;;;4953831;28;20227;-73
2021/11/05 09:13:41;;;;;;;14.40;12.17;;;;;;;;;;4949988;28;20229;-73
2021/11/05 09:16:09;;;;;;;14.50;11.97;;;;;;;;;;4939582;28;20213;-72
2021/11/05 09:18:34;;;;;;;16.33;11.97;;;;;;;;;;4937968;28;20953;-72
2021/11/05 09:21:01;;;;;;;14.27;11.90;;;;;;;;;;4938027;29;20688;-73
2021/11/05 09:23:27;;;;;;;17.00;12.70;;;;;;;;;;4956986;28;20214;-73
2021/11/05 09:25:55;;;;;;;14.97;12.27;;;;;;;;;;4941016;28;20230;-73
2021/11/05 09:28:21;;;;;;;15.70;12.03;;;;;;;;;;4955960;28;20310;-73
2021/11/05 09:30:49;;;;;;;16.20;11.93;;;;;;;;;;4937315;29;20233;-73
2021/11/05 09:33:17;;;;;;;14.17;11.27;;;;;;;;;;4953751;28;20656;-73
2021/11/05 09:35:46;;;;;;;19.20;12.17;;;;;;;;;;4973923;28;20765;-72
2021/11/05 09:38:12;;;;;;;15.60;12.30;;;;;;;;;;4949754;29;20697;-73
2021/11/05 09:40:43;;;;;;;13.10;11.53;;;;;;;;;;4922904;28;20237;-73
2021/11/05 09:43:09;;;;;;;13.33;11.60;;;;;;;;;;4941850;28;20218;-72
2021/11/05 09:45:35;;;;;;;15.23;11.83;;;;;;;;;;4956110;28;20273;-73
2021/11/05 09:48:01;;;;;;;14.83;11.33;;;;;;;;;;4956692;28;20234;-72
2021/11/05 09:50:27;;;;;;;13.80;10.83;;;;;;;;;;4957195;28;20218;-73
2021/11/05 09:52:53;;;;;;;13.07;11.23;;;;;;;;;;4957243;28;20273;-72
2021/11/05 09:55:19;;;;;;;17.00;11.13;;;;;;;;;;4940445;28;20245;-74
2021/11/05 09:57:45;;;;;;;11.77;9.57;;;;;;;;;;4948543;29;20297;-73
2021/11/05 10:00:12;;;;;;;12.80;10.03;;;;;;;;;;4921161;29;20647;-72
2021/11/05 10:02:42;;;;;;;13.17;9.93;;;;;;;;;;4915082;28;20218;-72
2021/11/05 10:05:10;;;;;;;13.53;9.53;;;;;;;;;;4940746;28;20223;-72
2021/11/05 10:07:48;;;;;;;15.23;9.37;;;;;;;;;;4955767;28;20711;-72
2021/11/05 10:10:21;;;;;;;9.17;7.87;;;;;;;;;;4950888;28;20233;-72
2021/11/05 10:13:01;;;;;;;10.60;7.67;;;;;;;;;;4941622;28;20308;-72
2021/11/05 10:15:42;;;;;;;10.47;7.10;;;;;;;;;;4925968;28;20699;-73
2021/11/05 10:18:21;;;;;;;12.23;7.87;;;;;;;;;;4925695;28;20252;-71
2021/11/05 10:20:48;;;;;;;11.37;7.80;;;;;;;;;;4956140;28;20297;-72
2021/11/05 10:23:14;;;;;;;13.37;8.60;;;;;;;;;;4962076;28;20633;-74
2021/11/05 10:25:44;;;;;;;12.60;7.87;;;;;;;;;;4923971;28;20648;-72
2021/11/05 10:28:24;;;;;;;10.97;7.73;;;;;;;;;;4946272;28;20689;-72
2021/11/05 10:30:54;;;;;;;11.17;7.63;;;;;;;;;;4956579;28;20230;-73
2021/11/05 10:33:24;;;;;;;12.27;7.33;;;;;;;;;;4972648;28;20254;-72
2021/11/05 10:35:51;;;;;;;10.17;7.03;;;;;;;;;;4924206;28;20861;-72
2021/11/05 10:38:17;;;;;;;11.47;6.70;;;;;;;;;;4937731;28;20230;-72
2021/11/05 10:40:50;;;;;;;12.23;7.27;;;;;;;;;;4952834;28;20321;-73
2021/11/05 10:43:34;;;;;;;9.83;6.57;;;;;;;;;;4955607;28;20226;-73
2021/11/05 10:46:02;;;;;;;7.73;6.07;;;;;;;;;;4940136;28;20246;-72
2021/11/05 10:48:30;;;;;;;9.30;6.10;;;;;;;;;;4964613;28;20227;-72
2021/11/05 10:51:03;;;;;;;8.60;5.40;;;;;;;;;;4936822;29;20237;-73
2021/11/05 10:53:31;;;;;;;8.10;5.50;;;;;;;;;;4928871;28;20226;-74
2021/11/05 10:56:02;;;;;;;8.27;5.80;;;;;;;;;;4939357;28;20246;-72
2021/11/05 10:58:41;;;;;;;10.57;5.53;;;;;;;;;;4948956;28;20223;-72
2021/11/05 11:01:12;;;;;;;8.07;5.57;;;;;;;;;;4951203;29;20226;-73
2021/11/05 11:03:54;;;;;;;6.30;5.33;;;;;;;;;;4959763;28;20308;-72
2021/11/05 11:06:38;;;;;;;7.53;5.00;;;;;;;;;;4970427;28;20221;-73
2021/11/05 11:09:06;;;;;;;5.00;4.50;;;;;;;;;;4952573;28;20222;-74
2021/11/05 11:11:41;;;;;;;7.27;4.67;;;;;;;;;;4940104;28;20298;-73
2021/11/05 11:14:18;;;;;;;6.97;4.00;;;;;;;;;;4955158;28;20602;-73
2021/11/05 11:16:48;;;;;;;7.33;3.97;;;;;;;;;;4972412;28;20322;-72
2021/11/05 11:19:16;;;;;;;6.23;3.90;;;;;;;;;;4938725;28;20226;-71
2021/11/05 11:22:10;;;;;;;7.07;3.63;;;;;;;;;;4938780;28;20217;-72
2021/11/05 11:24:37;;;;;;;5.47;3.30;;;;;;;;;;4947413;28;20222;-72
2021/11/05 11:27:04;;;;;;;5.57;3.47;;;;;;;;;;4954921;28;20763;-72
2021/11/05 11:29:30;;;;;;;6.70;3.70;;;;;;;;;;4962531;28;20218;-72
2021/11/05 11:31:57;;;;;;;5.43;3.47;;;;;;;;;;4955881;28;20229;-73
2021/11/05 11:34:25;;;;;;;5.63;3.40;;;;;;;;;;4922434;28;20222;-72
2021/11/05 11:36:55;;;;;;;6.70;3.70;;;;;;;;;;4969073;28;20723;-71
2021/11/05 11:39:24;;;;;;;7.37;3.67;;;;;;;;;;4961286;28;20238;-71
2021/11/05 11:41:50;;;;;;;5.37;3.57;;;;;;;;;;4947115;28;20210;-74
2021/11/05 11:44:21;;;;;;;8.13;3.47;;;;;;;;;;4947403;29;20729;-73
2021/11/05 11:47:09;;;;;;;7.90;3.27;;;;;;;;;;4934790;29;20222;-73
2021/11/05 11:49:45;;;;;;;6.13;3.33;;;;;;;;;;4942797;28;20232;-73
2021/11/05 11:52:14;;;;;;;5.53;3.00;;;;;;;;;;4939118;29;20231;-73
2021/11/05 11:54:46;;;;;;;4.37;3.00;;;;;;;;;;4932428;29;20230;-74
2021/11/05 11:57:28;;;;;;;6.13;3.03;;;;;;;;;;4934021;28;20293;-74
2021/11/05 12:00:09;;;;;;;3.97;2.67;;;;;;;;;;4938533;28;20226;-73
2021/11/05 12:02:38;;;;;;;4.73;2.60;;;;;;;;;;4971189;28;20230;-74
2021/11/05 12:05:23;;;;;;;4.83;2.60;;;;;;;;;;4961038;28;20305;-73
2021/11/05 12:08:13;;;;;;;6.20;2.80;;;;;;;;;;4967641;28;20225;-71
2021/11/05 12:10:39;;;;;;;4.20;2.43;;;;;;;;;;4924349;28;20728;-71
2021/11/05 12:13:32;;;;;;;5.03;2.53;;;;;;;;;;4967411;28;20222;-71
2021/11/05 12:16:09;;;;;;;4.67;2.60;;;;;;;;;;4956548;28;20230;-71
2021/11/05 12:19:13;;;;;;;4.63;3.30;;;;;;;;;;4952503;28;20266;-72
2021/11/05 12:21:41;;;;;;;5.70;3.20;;;;;;;;;;4859348;29;20285;-71
2021/11/05 12:24:24;;;;;;;5.90;4.00;;;;;;;;;;4874915;29;20658;-71
2021/11/05 12:27:01;;;;;;;6.30;3.53;;;;;;;;;;4938092;28;20231;-71
2021/11/05 12:29:33;;;;;;;8.73;3.20;;;;;;;;;;4925322;28;20284;-71
2021/11/05 12:31:59;;;;;;;4.97;3.40;;;;;;;;;;4963106;28;20268;-74
2021/11/05 12:34:26;;;;;;;4.73;3.43;;;;;;;;;;4950609;28;20292;-72
2021/11/05 12:36:57;;;;;;;5.93;3.50;;;;;;;;;;4941125;28;20280;-71
2021/11/05 12:39:37;;;;;;;5.40;3.60;;;;;;;;;;4927899;28;20816;-72
2021/11/05 12:42:10;;;;;;;3.97;2.83;;;;;;;;;;4938370;29;20237;-71
2021/11/05 12:44:57;;;;;;;5.87;3.13;;;;;;;;;;4932688;28;20306;-73
2021/11/05 12:47:46;;;;;;;7.30;3.27;;;;;;;;;;4963090;28;20261;-72
2021/11/05 12:50:15;;;;;;;5.17;2.90;;;;;;;;;;4967722;28;20734;-72
2021/11/05 12:52:43;;;;;;;5.33;3.87;;;;;;;;;;4950197;28;20717;-73
2021/11/05 12:55:08;;;;;;;6.13;3.50;;;;;;;;;;4958321;28;20272;-73
2021/11/05 12:57:34;;;;;;;16.87;11.50;;;;;;;;;;4941842;28;20230;-72
2021/11/05 13:00:01;;;;;;;7.60;4.57;;;;;;;;;;4941508;28;20222;-72
2021/11/05 13:02:27;;;;;;;5.90;4.80;;;;;;;;;;4925580;28;20611;-73
2021/11/05 13:04:55;;;;;;;7.80;6.00;;;;;;;;;;4956338;28;20218;-73
2021/11/05 13:07:20;;;;;;;6.67;4.90;;;;;;;;;;4963899;28;20280;-72
2021/11/05 13:09:47;;;;;;;8.60;5.10;;;;;;;;;;4949565;28;20226;-72
2021/11/05 13:12:17;;;;;;;10.63;5.37;;;;;;;;;;4954443;28;20715;-72
2021/11/05 13:15:00;;;;;;;7.87;5.17;;;;;;;;;;4938282;28;20306;-73
2021/11/05 13:17:27;;;;;;;6.70;4.10;;;;;;;;;;4967107;28;20688;-72
2021/11/05 13:20:06;;;;;;;5.33;4.17;;;;;;;;;;4955886;28;20231;-73
2021/11/05 13:22:44;;;;;;;13.80;4.73;;;;;;;;;;4965669;28;20320;-72
2021/11/05 13:25:31;;;;;;;7.30;3.50;;;;;;;;;;4937829;28;20219;-73
2021/11/05 13:28:16;;;;;;;7.50;3.60;;;;;;;;;;4960951;28;20231;-72
2021/11/05 13:30:47;;;;;;;5.40;3.80;;;;;;;;;;4959041;28;20788;-72
2021/11/05 13:33:14;;;;;;;5.80;2.60;;;;;;;;;;4937278;28;20722;-72
2021/11/05 13:35:51;;;;;;;4.30;2.50;;;;;;;;;;4940268;28;20305;-73
2021/11/05 13:38:32;;;;;;;3.00;2.00;;;;;;;;;;4966594;28;20242;-72
2021/11/05 13:41:05;;;;;;;5.47;1.93;;;;;;;;;;4940702;28;20691;-72
2021/11/05 13:43:33;;;;;;;4.27;2.13;;;;;;;;;;4925399;28;20252;-72
2021/11/05 13:46:03;;;;;;;6.63;2.37;;;;;;;;;;4940151;28;20716;-72
2021/11/05 13:48:34;;;;;;;5.73;2.67;;;;;;;;;;4921009;28;20251;-72
2021/11/05 13:51:18;;;;;;;3.93;2.80;;;;;;;;;;4952021;29;20214;-72
2021/11/05 13:54:02;;;;;;;5.13;2.90;;;;;;;;;;4962958;28;20222;-72
2021/11/05 13:56:44;;;;;;;6.40;3.10;;;;;;;;;;4926345;28;20223;-73
2021/11/05 13:59:23;;;;;;;4.07;2.80;;;;;;;;;;4961395;28;20639;-74
2021/11/05 14:01:52;;;;;;;3.67;2.80;;;;;;;;;;4949119;28;20222;-71
2021/11/05 14:04:19;;;;;;;3.83;2.40;;;;;;;;;;4972160;28;20258;-72
2021/11/05 14:06:48;;;;;;;6.33;2.77;;;;;;;;;;4969655;28;20214;-72
2021/11/05 14:09:20;;;;;;;5.53;2.47;;;;;;;;;;4958960;28;20242;-73
2021/11/05 14:11:49;;;;;;;4.30;2.73;;;;;;;;;;4969204;28;20607;-73
2021/11/05 14:14:28;;;;;;;4.67;2.47;;;;;;;;;;4964136;28;20331;-73
2021/11/05 14:17:00;;;;;;;22.10;3.93;;;;;;;;;;4966795;28;20592;-73
2021/11/05 14:19:27;;;;;;;6.00;2.37;;;;;;;;;;4943655;28;20299;-72
2021/11/05 14:22:11;;;;;;;8.17;2.50;;;;;;;;;;4941311;28;20713;-72
2021/11/05 14:24:43;;;;;;;7.83;2.73;;;;;;;;;;4968710;28;20214;-72
2021/11/05 14:27:11;;;;;;;2.43;1.90;;;;;;;;;;4945733;28;20662;-72
2021/11/05 14:29:44;;;;;;;3.80;2.00;;;;;;;;;;4934790;28;20616;-72
2021/11/05 14:32:11;;;;;;;4.30;2.27;;;;;;;;;;4946104;28;20221;-72
2021/11/05 14:34:49;;;;;;;14.33;5.10;;;;;;;;;;4955620;28;20222;-71
2021/11/05 14:37:20;;;;;;;5.33;2.60;;;;;;;;;;4967472;28;20266;-72
2021/11/05 14:40:12;;;;;;;10.17;2.60;;;;;;;;;;4925444;28;20226;-71
2021/11/05 14:42:40;;;;;;;6.20;2.20;;;;;;;;;;4951857;28;20225;-72
2021/11/05 14:45:21;;;;;;;10.10;2.67;;;;;;;;;;4945489;28;20223;-72
2021/11/05 14:47:47;;;;;;;34.20;5.27;;;;;;;;;;4961307;28;20312;-72
2021/11/05 14:50:20;;;;;;;6.97;2.20;;;;;;;;;;4945579;28;20683;-72
2021/11/05 14:52:52;;;;;;;4.60;2.87;;;;;;;;;;4949197;28;20270;-72